createdAt,value
2022-11-18T00:03:37.878Z,63.29
2022-11-18T00:07:40.913Z,63.79
2022-11-18T00:11:53.644Z,63.23
2022-11-18T00:16:03.046Z,63.01
2022-11-18T00:20:03.110Z,63.21
2022-11-18T00:24:06.069Z,63.55
2022-11-18T00:28:06.644Z,63.12
2022-11-18T00:32:07.059Z,63.32
2022-11-18T00:36:09.893Z,63.34
2022-11-18T00:40:14.761Z,63.49
2022-11-18T00:44:15.102Z,63.67
2022-11-18T00:48:21.574Z,63.14
2022-11-18T00:52:21.697Z,63.37
2022-11-18T00:56:24.420Z,63.68
2022-11-18T01:00:24.737Z,63.86
2022-11-18T01:04:25.125Z,64.27
2022-11-18T01:08:26.090Z,65.78
2022-11-18T01:12:41.292Z,64.85
2022-11-18T01:16:41.368Z,64.21
2022-11-18T01:20:41.861Z,64.50
2022-11-18T01:24:41.946Z,65.21
2022-11-18T01:28:45.321Z,65.92
2022-11-18T01:32:45.393Z,65.50
2022-11-18T01:36:45.658Z,65.31
2022-11-18T01:40:45.818Z,64.16
2022-11-18T01:45:22.879Z,64.41
2022-11-18T01:49:23.423Z,64.13
2022-11-18T01:53:28.521Z,65.05
2022-11-18T01:57:32.542Z,65.58
2022-11-18T02:01:35.674Z,65.04
2022-11-18T02:05:37.932Z,64.27
2022-11-18T02:09:39.852Z,63.44
2022-11-18T02:13:39.992Z,64.04
2022-11-18T02:17:57.912Z,64.07
2022-11-18T02:22:15.320Z,64.16
2022-11-18T02:27:17.589Z,65.35
2022-11-18T02:31:30.144Z,65.18
2022-11-18T02:35:36.275Z,65.49
2022-11-18T02:39:44.936Z,66.23
2022-11-18T02:43:51.377Z,65.77
2022-11-18T02:47:57.680Z,65.79
2022-11-18T02:52:00.265Z,66.43
2022-11-18T02:56:02.143Z,64.81
2022-11-18T03:00:02.583Z,64.99
2022-11-18T03:04:07.032Z,65.15
2022-11-18T03:08:16.986Z,64.38
2022-11-18T03:12:32.747Z,65.03
2022-11-18T03:16:39.648Z,64.51
2022-11-18T03:20:52.376Z,64.79
2022-11-18T03:25:04.687Z,64.77
2022-11-18T03:29:13.237Z,64.52
2022-11-18T03:33:20.289Z,64.49
2022-11-18T03:37:29.162Z,64.64
2022-11-18T03:41:33.044Z,64.99
2022-11-18T03:45:39.528Z,65.10
2022-11-18T03:49:48.169Z,65.45
2022-11-18T03:54:09.494Z,64.73
2022-11-18T03:58:20.195Z,65.03
2022-11-18T04:02:23.847Z,64.46
2022-11-18T04:06:44.856Z,64.36
2022-11-18T04:10:55.110Z,63.79
2022-11-18T04:14:57.126Z,63.98
2022-11-18T04:19:00.274Z,64.39
2022-11-18T04:23:04.773Z,64.29
2022-11-18T04:27:08.728Z,63.91
2022-11-18T04:31:09.024Z,63.60
2022-11-18T04:35:09.860Z,64.02
2022-11-18T04:39:10.160Z,64.81
2022-11-18T04:43:12.933Z,64.38
2022-11-18T04:47:14.015Z,64.24
2022-11-18T04:51:14.153Z,64.28
2022-11-18T04:55:14.272Z,64.78
2022-11-18T04:59:20.126Z,64.60
2022-11-18T05:03:20.643Z,64.62
2022-11-18T05:07:21.140Z,63.85
2022-11-18T05:11:33.832Z,64.06
2022-11-18T05:15:36.798Z,64.04
2022-11-18T05:19:37.257Z,63.47
2022-11-18T05:23:37.368Z,62.96
2022-11-18T05:27:37.629Z,63.08
2022-11-18T05:31:40.695Z,63.28
2022-11-18T05:35:41.169Z,63.13
2022-11-18T05:39:41.437Z,62.65
2022-11-18T05:43:41.586Z,62.88
2022-11-18T05:47:56.504Z,62.78
2022-11-18T05:51:56.572Z,62.71
2022-11-18T05:56:06.300Z,62.59
2022-11-18T06:00:07.594Z,63.47
2022-11-18T06:04:20.677Z,63.75
2022-11-18T06:08:22.835Z,63.28
2022-11-18T06:12:30.344Z,63.41
2022-11-18T06:16:40.569Z,63.90
2022-11-18T06:20:45.000Z,63.85
2022-11-18T06:24:46.491Z,63.58
2022-11-18T06:28:50.712Z,63.37
2022-11-18T06:32:50.910Z,63.58
2022-11-18T06:36:53.672Z,63.85
2022-11-18T06:40:53.939Z,63.81
2022-11-18T06:44:54.210Z,63.38
2022-11-18T06:48:55.106Z,63.39
2022-11-18T06:52:57.840Z,63.04
2022-11-18T06:56:58.099Z,63.12
2022-11-18T07:00:58.475Z,63.20
2022-11-18T07:04:58.671Z,63.86
2022-11-18T07:09:04.232Z,63.16
2022-11-18T07:13:04.640Z,63.22
2022-11-18T07:17:04.800Z,63.56
2022-11-18T07:21:06.509Z,63.38
2022-11-18T07:25:09.943Z,62.95
2022-11-18T07:29:10.826Z,62.84
2022-11-18T07:33:11.236Z,62.33
2022-11-18T07:37:11.382Z,62.80
2022-11-18T07:41:16.827Z,63.63
2022-11-18T07:45:17.363Z,63.24
2022-11-18T07:49:17.915Z,63.02
2022-11-18T07:53:18.252Z,62.89
2022-11-18T07:57:22.013Z,62.77
2022-11-18T08:01:25.318Z,62.78
2022-11-18T08:05:27.719Z,63.34
2022-11-18T08:09:28.515Z,63.22
2022-11-18T08:13:33.434Z,63.60
2022-11-18T08:17:37.016Z,63.83
2022-11-18T08:21:40.117Z,63.79
2022-11-18T08:25:42.808Z,64.36
2022-11-18T08:29:48.609Z,63.61
2022-11-18T08:33:50.596Z,63.61
2022-11-18T08:37:51.943Z,64.14
2022-11-18T08:41:54.038Z,64.08
2022-11-18T08:45:59.952Z,65.29
2022-11-18T08:50:02.293Z,66.02
2022-11-18T08:54:02.595Z,66.41
2022-11-18T08:58:02.650Z,65.45
2022-11-18T09:02:05.378Z,65.66
2022-11-18T09:06:10.325Z,65.34
2022-11-18T09:10:12.086Z,65.73
2022-11-18T09:18:38.984Z,66.49
2022-11-18T09:22:41.925Z,66.01
2022-11-18T09:26:43.312Z,65.51
2022-11-18T09:30:44.960Z,65.35
2022-11-18T09:34:49.206Z,65.59
2022-11-18T09:38:53.507Z,65.07
2022-11-18T09:43:12.604Z,65.78
2022-11-18T09:47:30.450Z,66.25
2022-11-18T09:51:43.312Z,65.55
2022-11-18T09:55:46.747Z,65.36
2022-11-18T09:59:48.475Z,65.54
2022-11-18T10:03:50.524Z,64.82
2022-11-18T10:08:15.237Z,64.35
2022-11-18T10:12:38.045Z,64.84
2022-11-18T10:16:57.701Z,64.80
2022-11-18T10:21:15.778Z,64.79
2022-11-18T10:25:22.587Z,65.44
2022-11-18T10:29:26.052Z,65.74
2022-11-18T10:33:32.781Z,64.92
2022-11-18T10:38:07.334Z,65.46
2022-11-18T10:42:06.301Z,65.31
2022-11-18T10:46:22.660Z,66.00
2022-11-18T10:50:39.657Z,65.75
2022-11-18T10:54:42.619Z,66.26
2022-11-18T10:58:52.979Z,65.41
2022-11-18T11:03:01.249Z,66.00
2022-11-18T11:07:20.829Z,65.45
2022-11-18T11:11:31.479Z,65.13
2022-11-18T11:15:44.219Z,65.06
2022-11-18T11:20:02.412Z,65.63
2022-11-18T11:24:02.684Z,65.40
2022-11-18T11:28:15.588Z,65.16
2022-11-18T11:32:32.562Z,65.06
2022-11-18T11:36:50.272Z,65.38
2022-11-18T11:41:08.003Z,65.54
2022-11-18T11:45:22.527Z,65.51
2022-11-18T11:49:46.673Z,66.46
2022-11-18T11:54:20.191Z,65.79
2022-11-18T11:58:44.304Z,65.34
2022-11-18T12:03:16.124Z,65.51
2022-11-18T12:07:24.705Z,65.60
2022-11-18T12:11:47.729Z,65.10
2022-11-18T12:16:26.331Z,64.33
2022-11-18T12:20:49.273Z,64.82
2022-11-18T12:24:53.748Z,64.60
2022-11-18T12:28:54.697Z,64.12
2022-11-18T12:33:01.181Z,64.33
2022-11-18T12:38:02.330Z,64.70
2022-11-18T12:42:45.912Z,65.30
2022-11-18T12:46:58.978Z,65.85
2022-11-18T12:51:00.929Z,66.12
2022-11-18T12:55:05.220Z,66.16
2022-11-18T12:59:16.890Z,65.88
2022-11-18T13:03:28.946Z,65.83
2022-11-18T13:07:47.034Z,65.47
2022-11-18T13:11:56.306Z,64.49
2022-11-18T13:16:20.921Z,64.83
2022-11-18T13:20:33.095Z,65.52
2022-11-18T13:24:46.709Z,64.76
2022-11-18T13:29:06.364Z,64.78
2022-11-18T13:33:18.098Z,65.30
2022-11-18T13:37:26.638Z,64.59
2022-11-18T13:41:33.289Z,64.48
2022-11-18T13:45:39.122Z,65.58
2022-11-18T13:50:15.474Z,65.32
2022-11-18T13:54:27.194Z,64.90
2022-11-18T13:59:15.628Z,64.54
2022-11-18T14:03:08.223Z,65.00
2022-11-18T14:07:36.159Z,65.09
2022-11-18T14:11:43.376Z,65.77
2022-11-18T14:15:47.164Z,64.71
2022-11-18T14:19:50.245Z,64.32
2022-11-18T14:23:53.847Z,64.41
2022-11-18T14:27:57.541Z,64.53
2022-11-18T14:32:18.812Z,64.58
2022-11-18T14:36:23.440Z,64.17
2022-11-18T14:40:28.383Z,63.58
2022-11-18T14:45:01.398Z,63.47
2022-11-18T14:49:23.758Z,63.77
2022-11-18T14:53:27.922Z,64.04
2022-11-18T14:57:32.931Z,63.62
2022-11-18T15:01:39.159Z,63.12
2022-11-18T15:05:40.732Z,62.97
2022-11-18T15:09:42.308Z,63.31
2022-11-18T15:13:46.041Z,63.13
2022-11-18T15:17:48.505Z,63.21
2022-11-18T15:21:52.799Z,63.12
2022-11-18T15:25:55.577Z,62.52
2022-11-18T15:30:01.677Z,63.13
2022-11-18T15:34:06.753Z,63.14
2022-11-18T15:38:20.661Z,63.08
2022-11-18T15:42:23.464Z,63.47
2022-11-18T15:46:30.110Z,62.76
2022-11-18T15:50:30.357Z,62.28
2022-11-18T15:54:30.520Z,62.23
2022-11-18T15:58:35.732Z,62.28
2022-11-18T16:02:39.100Z,62.28
2022-11-18T16:06:40.117Z,62.01
2022-11-18T16:10:52.685Z,62.31
2022-11-18T16:15:12.819Z,62.14
2022-11-18T16:19:18.695Z,62.74
2022-11-18T16:23:18.870Z,63.18
2022-11-18T16:27:21.304Z,64.27
2022-11-18T16:31:34.382Z,64.09
2022-11-18T16:35:37.053Z,63.17
2022-11-18T16:39:37.191Z,63.15
2022-11-18T16:43:37.395Z,62.86
2022-11-18T16:47:38.525Z,62.28
2022-11-18T16:51:43.974Z,62.63
2022-11-18T16:55:44.110Z,63.19
2022-11-18T16:59:44.350Z,64.83
2022-11-18T17:03:45.355Z,65.54
2022-11-18T17:07:48.194Z,65.19
2022-11-18T17:11:48.449Z,66.05
2022-11-18T17:15:48.761Z,66.27
2022-11-18T17:19:48.877Z,65.03
2022-11-18T17:23:52.606Z,64.61
2022-11-18T17:27:52.750Z,64.09
2022-11-18T17:31:53.894Z,63.93
2022-11-18T17:36:03.301Z,63.94
2022-11-18T17:40:06.261Z,63.91
2022-11-18T17:44:09.164Z,63.34
2022-11-18T17:48:09.625Z,63.24
2022-11-18T17:52:09.917Z,63.71
2022-11-18T17:56:13.219Z,63.70
2022-11-18T18:00:16.126Z,63.61
2022-11-18T18:04:20.641Z,63.10
2022-11-18T18:08:21.118Z,62.92
2022-11-18T18:12:36.404Z,63.26
2022-11-18T18:16:36.958Z,64.29
2022-11-18T18:20:39.226Z,63.88
2022-11-18T18:24:39.298Z,63.53
2022-11-18T18:28:42.196Z,63.99
2022-11-18T18:32:42.381Z,63.63
2022-11-18T18:36:42.568Z,63.72
2022-11-18T18:40:43.333Z,63.87
2022-11-18T18:44:58.886Z,64.24
2022-11-18T18:49:02.368Z,63.67
2022-11-18T18:53:02.490Z,63.68
2022-11-18T18:57:02.607Z,63.88
2022-11-18T19:01:12.803Z,63.96
2022-11-18T19:05:13.210Z,63.44
2022-11-18T19:09:13.415Z,63.16
2022-11-18T19:13:13.534Z,62.55
2022-11-18T19:32:32.492Z,63.26
2022-11-18T19:42:00.901Z,63.47
2022-11-18T19:46:22.820Z,63.22
2022-11-18T19:50:44.752Z,62.77
2022-11-18T19:54:56.068Z,62.56
2022-11-18T20:04:14.783Z,61.93
2022-11-18T20:19:29.329Z,62.43
2022-11-18T20:23:52.432Z,62.40
2022-11-18T20:28:04.945Z,62.50
2022-11-18T20:32:20.366Z,62.52
2022-11-18T20:37:02.141Z,62.71
2022-11-18T20:41:26.216Z,62.86
2022-11-18T20:45:40.500Z,63.26
2022-11-18T20:49:46.831Z,63.17
2022-11-18T20:53:57.637Z,62.98
2022-11-18T20:58:01.225Z,62.71
2022-11-18T21:02:17.728Z,63.08
2022-11-18T21:06:18.288Z,62.64
2022-11-18T21:10:21.074Z,63.45
2022-11-18T21:14:24.812Z,64.27
2022-11-18T21:18:25.577Z,63.78
2022-11-18T21:22:28.585Z,63.54
2022-11-18T21:26:33.812Z,63.23
2022-11-18T21:30:33.964Z,63.36
2022-11-18T21:34:34.083Z,63.37
2022-11-18T21:38:34.208Z,63.04
2022-11-18T21:42:37.137Z,62.18
2022-11-18T21:46:38.970Z,62.29
2022-11-18T21:50:40.997Z,62.16
2022-11-18T21:54:41.102Z,62.38
2022-11-18T21:58:44.856Z,62.66
2022-11-18T22:02:44.915Z,62.72
2022-11-18T22:06:45.019Z,62.58
2022-11-18T22:10:48.546Z,62.53
2022-11-18T22:14:53.168Z,62.45
2022-11-18T22:19:03.586Z,62.50
2022-11-18T22:23:06.943Z,62.18
2022-11-18T22:27:11.318Z,62.51
2022-11-18T22:31:20.143Z,62.65
2022-11-18T22:35:20.471Z,62.79
2022-11-18T22:39:21.167Z,62.71
2022-11-18T22:43:21.806Z,62.55
2022-11-18T22:47:24.502Z,62.14
2022-11-18T22:51:24.637Z,62.27
2022-11-18T22:55:24.724Z,62.08
2022-11-18T22:59:25.198Z,62.23
2022-11-18T23:03:28.040Z,62.06
2022-11-18T23:07:28.570Z,62.04
2022-11-18T23:11:41.395Z,61.73
2022-11-18T23:15:41.782Z,61.41
2022-11-18T23:19:46.217Z,61.55
2022-11-18T23:23:47.238Z,61.23
2022-11-18T23:28:15.665Z,61.31
2022-11-18T23:32:26.304Z,61.30
2022-11-18T23:45:53.217Z,61.62
2022-11-18T23:49:53.317Z,61.52
2022-11-18T23:53:59.801Z,61.45
2022-11-18T23:57:59.980Z,61.17
